Terminal Aerodrome Forecast
Issued by NWS Sioux Falls, SD

Home | Current Version | Previous Version | Text Only | Print | Product List | Glossary On
Versions: 1 2 3 4 5 6 7 8 9 10 11 12 13 14 15 16 17 18 19 20 21 22 23 24 25 26 27 28 29 30 31 32 33 34 35 36 37
000
FTUS43 KFSD 190521
TAFSUX
TAF
KSUX 190521Z 1906/2006 29015KT P6SM BKN070
     FM190800 31018G30KT P6SM BKN035
     FM191000 31014G25KT P6SM OVC025
     FM200000 28007KT P6SM BKN035=

USA.gov is the U.S. government's official web portal to all federal, state and local government web resources and services.